createdAt,value
2023-04-18T00:01:57.767Z,9.50
2023-04-18T00:04:29.876Z,9.50
2023-04-18T00:07:03.199Z,9.50
2023-04-18T00:09:37.419Z,9.50
2023-04-18T00:12:13.954Z,9.50
2023-04-18T00:14:45.387Z,9.50
2023-04-18T00:17:19.247Z,9.50
2023-04-18T00:19:52.481Z,9.50
2023-04-18T00:22:24.490Z,9.50
2023-04-18T00:24:55.964Z,9.50
2023-04-18T00:27:30.570Z,9.50
2023-04-18T00:30:01.611Z,9.50
2023-04-18T00:32:33.268Z,9.50
2023-04-18T00:35:04.589Z,9.50
2023-04-18T00:37:35.861Z,9.50
2023-04-18T00:40:07.482Z,9.50
2023-04-18T00:42:42.178Z,9.50
2023-04-18T00:45:13.933Z,9.50
2023-04-18T00:47:46.356Z,9.50
2023-04-18T00:50:18.471Z,9.50
2023-04-18T00:52:50.278Z,9.50
2023-04-18T00:55:22.160Z,9.50
2023-04-18T00:57:56.807Z,9.50
2023-04-18T01:00:31.264Z,9.50
2023-04-18T01:03:02.930Z,9.60
2023-04-18T01:05:35.366Z,9.50
2023-04-18T01:08:08.886Z,9.50
2023-04-18T01:10:40.341Z,9.50
2023-04-18T01:13:22.562Z,9.60
2023-04-18T01:15:56.621Z,9.50
2023-04-18T01:18:27.856Z,9.60
2023-04-18T01:21:00.763Z,9.50
2023-04-18T01:23:32.346Z,9.50
2023-04-18T01:26:06.743Z,9.50
2023-04-18T01:28:39.714Z,9.50
2023-04-18T01:31:12.550Z,9.60
2023-04-18T01:33:43.913Z,9.60
2023-04-18T01:36:14.877Z,9.60
2023-04-18T01:38:46.428Z,9.60
2023-04-18T01:41:19.912Z,9.60
2023-04-18T01:43:52.886Z,9.60
2023-04-18T01:46:24.241Z,9.60
2023-04-18T01:48:56.102Z,9.60
2023-04-18T01:51:28.761Z,9.70
2023-04-18T01:54:00.489Z,9.70
2023-04-18T01:56:34.794Z,9.60
2023-04-18T01:59:06.961Z,9.70
2023-04-18T02:01:37.874Z,9.70
2023-04-18T02:04:09.472Z,9.70
2023-04-18T02:06:40.696Z,9.60
2023-04-18T02:09:11.965Z,9.70
2023-04-18T02:11:48.697Z,9.70
2023-04-18T02:14:19.973Z,9.60
2023-04-18T02:16:51.373Z,9.60
2023-04-18T02:19:22.893Z,9.60
2023-04-18T02:21:54.100Z,9.60
2023-04-18T02:24:25.574Z,9.60
2023-04-18T02:26:59.221Z,9.60
2023-04-18T02:29:31.147Z,9.60
2023-04-18T02:32:04.022Z,9.60
2023-04-18T02:34:35.753Z,9.60
2023-04-18T02:37:06.862Z,9.50
2023-04-18T02:39:39.003Z,9.50
2023-04-18T02:42:12.888Z,9.50
2023-04-18T02:44:44.225Z,9.50
2023-04-18T02:47:15.340Z,9.40
2023-04-18T02:49:49.876Z,9.40
2023-04-18T02:52:22.412Z,9.40
2023-04-18T02:54:53.799Z,9.40
2023-04-18T02:57:32.299Z,9.40
2023-04-18T03:00:23.347Z,9.40
2023-04-18T03:03:04.780Z,9.40
2023-04-18T03:06:01.685Z,9.40
2023-04-18T03:08:35.879Z,9.40
2023-04-18T03:11:08.143Z,9.40
2023-04-18T03:13:43.160Z,9.40
2023-04-18T03:16:16.418Z,9.40
2023-04-18T03:18:48.888Z,9.40
2023-04-18T03:21:21.428Z,9.40
2023-04-18T03:23:53.654Z,9.40
2023-04-18T03:26:27.940Z,9.40
2023-04-18T03:29:03.826Z,9.30
2023-04-18T03:31:37.149Z,9.40
2023-04-18T03:34:09.682Z,9.40
2023-04-18T03:36:42.252Z,9.40
2023-04-18T03:39:16.111Z,9.40
2023-04-18T03:41:52.088Z,9.40
2023-04-18T03:44:27.283Z,9.40
2023-04-18T03:47:01.637Z,9.40
2023-04-18T03:49:36.370Z,9.40
2023-04-18T03:52:10.270Z,9.40
2023-04-18T03:54:42.607Z,9.40
2023-04-18T03:57:16.782Z,9.40
2023-04-18T03:59:55.083Z,9.30
2023-04-18T04:02:27.869Z,9.40
2023-04-18T04:05:00.476Z,9.40
2023-04-18T04:07:33.575Z,9.40
2023-04-18T04:10:07.213Z,9.40
2023-04-18T04:12:40.353Z,9.40
2023-04-18T04:15:15.850Z,9.40
2023-04-18T04:17:56.615Z,9.40
2023-04-18T04:20:29.749Z,9.40
2023-04-18T04:23:13.502Z,9.40
2023-04-18T04:25:48.888Z,9.40
2023-04-18T04:28:40.710Z,9.50
2023-04-18T04:31:19.706Z,9.50
2023-04-18T04:33:52.160Z,9.50
2023-04-18T04:36:28.084Z,9.50
2023-04-18T04:39:04.183Z,9.50
2023-04-18T04:41:48.840Z,9.50
2023-04-18T04:44:26.429Z,9.60
2023-04-18T04:47:02.388Z,9.60
2023-04-18T04:49:40.182Z,9.60
2023-04-18T04:52:12.199Z,9.70
2023-04-18T04:54:46.803Z,9.70
2023-04-18T04:57:22.674Z,9.70
2023-04-18T04:59:59.475Z,9.70
2023-04-18T05:02:39.440Z,9.70
2023-04-18T05:05:15.979Z,9.80
2023-04-18T05:07:52.437Z,9.80
2023-04-18T05:10:30.219Z,9.80
2023-04-18T05:13:04.703Z,9.80
2023-04-18T05:15:39.816Z,9.90
2023-04-18T05:18:16.716Z,9.90
2023-04-18T05:20:50.454Z,9.90
2023-04-18T05:23:25.571Z,9.90
2023-04-18T05:26:03.906Z,10.00
2023-04-18T05:28:37.042Z,10.00
2023-04-18T05:31:09.888Z,10.10
2023-04-18T05:33:44.659Z,10.10
2023-04-18T05:36:17.019Z,10.10
2023-04-18T05:38:51.024Z,10.10
2023-04-18T05:41:23.766Z,10.20
2023-04-18T05:44:04.937Z,10.30
2023-04-18T05:46:39.214Z,10.40
2023-04-18T05:49:13.968Z,10.40
2023-04-18T05:51:46.643Z,10.60
2023-04-18T05:54:26.111Z,10.60
2023-04-18T05:56:58.181Z,10.70
2023-04-18T05:59:31.777Z,10.80
2023-04-18T06:02:04.240Z,10.80
2023-04-18T06:04:42.700Z,10.90
2023-04-18T06:07:15.923Z,11.00
2023-04-18T06:09:49.353Z,11.10
2023-04-18T06:12:24.805Z,11.10
2023-04-18T06:14:57.300Z,11.20
2023-04-18T06:17:31.632Z,11.20
2023-04-18T06:20:07.570Z,11.20
2023-04-18T06:22:40.022Z,11.30
2023-04-18T06:25:13.285Z,11.30
2023-04-18T06:27:45.978Z,11.30
2023-04-18T06:30:18.326Z,11.40
2023-04-18T06:32:51.228Z,11.40
2023-04-18T06:35:26.919Z,11.50
2023-04-18T06:37:59.607Z,11.60
2023-04-18T06:40:33.775Z,11.60
2023-04-18T06:43:08.443Z,11.70
2023-04-18T06:45:41.319Z,11.80
2023-04-18T06:48:13.671Z,11.80
2023-04-18T06:50:48.538Z,11.90
2023-04-18T06:53:23.120Z,12.00
2023-04-18T06:55:55.004Z,12.00
2023-04-18T06:58:27.713Z,12.10
2023-04-18T07:01:00.611Z,12.20
2023-04-18T07:03:33.935Z,12.20
2023-04-18T07:06:09.538Z,12.40
2023-04-18T07:08:42.437Z,12.40
2023-04-18T07:11:15.668Z,12.50
2023-04-18T07:13:50.037Z,12.60
2023-04-18T07:16:22.180Z,12.60
2023-04-18T07:18:55.510Z,12.60
2023-04-18T07:21:29.778Z,12.60
2023-04-18T07:24:03.101Z,12.60
2023-04-18T07:26:35.562Z,12.70
2023-04-18T07:29:07.816Z,12.80
2023-04-18T07:31:40.469Z,12.90
2023-04-18T07:34:16.958Z,12.90
2023-04-18T07:36:52.759Z,12.90
2023-04-18T07:39:33.356Z,13.00
2023-04-18T07:42:08.641Z,13.00
2023-04-18T07:44:46.036Z,13.00
2023-04-18T07:47:22.403Z,13.10
2023-04-18T07:49:56.025Z,13.20
2023-04-18T07:52:31.223Z,13.20
2023-04-18T07:55:03.862Z,13.20
2023-04-18T07:57:35.704Z,13.30
2023-04-18T08:00:12.974Z,13.30
2023-04-18T08:02:45.239Z,13.20
2023-04-18T08:05:17.726Z,13.20
2023-04-18T08:07:53.694Z,13.30
2023-04-18T08:10:26.737Z,13.30
2023-04-18T08:12:59.154Z,13.30
2023-04-18T08:15:33.720Z,13.30
2023-04-18T08:18:05.867Z,13.30
2023-04-18T08:20:41.788Z,13.30
2023-04-18T08:23:19.753Z,13.30
2023-04-18T08:25:53.118Z,13.30
2023-04-18T08:28:25.600Z,13.20
2023-04-18T08:30:58.976Z,13.20
2023-04-18T08:33:31.359Z,13.30
2023-04-18T08:36:04.036Z,13.30
2023-04-18T08:38:39.244Z,13.30
2023-04-18T08:41:12.397Z,13.30
2023-04-18T08:43:44.595Z,13.40
2023-04-18T08:46:19.539Z,13.30
2023-04-18T08:49:01.609Z,13.30
2023-04-18T08:51:34.319Z,13.30
2023-04-18T08:54:09.368Z,13.40
2023-04-18T08:56:42.677Z,13.40
2023-04-18T08:59:14.426Z,13.40
2023-04-18T09:01:57.266Z,13.50
2023-04-18T09:04:43.715Z,13.50
2023-04-18T09:07:17.232Z,13.50
2023-04-18T09:09:54.646Z,13.50
2023-04-18T09:12:31.000Z,13.60
2023-04-18T09:15:13.886Z,13.60
2023-04-18T09:17:49.867Z,13.60
2023-04-18T09:20:31.090Z,13.70
2023-04-18T09:23:07.099Z,13.70
2023-04-18T09:25:47.281Z,13.70
2023-04-18T09:28:27.399Z,13.70
2023-04-18T09:31:00.210Z,13.80
2023-04-18T09:33:34.809Z,13.80
2023-04-18T09:36:21.680Z,13.80
2023-04-18T09:39:01.214Z,13.80
2023-04-18T09:41:36.770Z,13.90
2023-04-18T09:44:15.376Z,13.90
2023-04-18T09:46:48.322Z,13.90
2023-04-18T09:49:21.479Z,13.90
2023-04-18T09:51:54.663Z,13.90
2023-04-18T09:54:30.053Z,13.90
2023-04-18T09:57:06.238Z,13.90
2023-04-18T09:59:43.149Z,13.90
2023-04-18T10:02:18.312Z,13.90
2023-04-18T10:04:51.767Z,13.90
2023-04-18T10:07:26.350Z,14.00
2023-04-18T10:09:59.036Z,14.00
2023-04-18T10:12:34.322Z,13.90
2023-04-18T10:15:08.959Z,14.00
2023-04-18T10:20:32.359Z,14.00
2023-04-18T10:23:26.488Z,14.10
2023-04-18T10:26:03.375Z,14.10
2023-04-18T10:28:50.424Z,14.20
2023-04-18T10:31:26.565Z,14.20
2023-04-18T10:36:35.249Z,14.20
2023-04-18T10:39:26.262Z,14.30
2023-04-18T10:41:58.913Z,14.30
2023-04-18T10:44:33.432Z,14.30
2023-04-18T10:47:20.773Z,14.40
2023-04-18T10:50:07.038Z,14.50
2023-04-18T10:52:39.532Z,14.60
2023-04-18T10:55:17.171Z,14.70
2023-04-18T10:57:50.868Z,14.90
2023-04-18T11:00:23.215Z,15.00
2023-04-18T11:02:56.860Z,15.20
2023-04-18T11:05:31.866Z,15.30
2023-04-18T11:08:04.081Z,15.40
2023-04-18T11:10:36.914Z,15.60
2023-04-18T11:13:09.948Z,15.60
2023-04-18T11:15:45.542Z,15.70
2023-04-18T11:18:18.583Z,15.80
2023-04-18T11:21:04.566Z,15.80
2023-04-18T11:23:38.433Z,15.90
2023-04-18T11:26:10.889Z,15.90
2023-04-18T11:28:45.592Z,15.90
2023-04-18T11:31:19.553Z,15.90
2023-04-18T11:33:55.944Z,15.90
2023-04-18T11:36:32.843Z,15.90
2023-04-18T11:39:09.657Z,15.90
2023-04-18T11:41:48.758Z,15.90
2023-04-18T11:44:22.080Z,15.90
2023-04-18T11:46:54.325Z,15.90
2023-04-18T11:49:30.537Z,16.00
2023-04-18T11:52:14.776Z,16.00
2023-04-18T11:54:48.463Z,16.10
2023-04-18T11:57:25.609Z,16.10
2023-04-18T11:59:59.697Z,16.10
2023-04-18T12:02:42.878Z,16.10
2023-04-18T12:05:17.288Z,16.20
2023-04-18T12:07:52.702Z,16.20
2023-04-18T12:10:29.170Z,16.20
2023-04-18T12:13:03.361Z,16.30
2023-04-18T12:15:42.239Z,16.30
2023-04-18T12:18:16.255Z,16.40
2023-04-18T12:20:51.204Z,16.40
2023-04-18T12:23:37.112Z,16.50
2023-04-18T12:26:11.106Z,16.50
2023-04-18T12:28:47.041Z,16.50
2023-04-18T12:31:22.236Z,16.40
2023-04-18T12:33:55.076Z,16.40
2023-04-18T12:36:29.291Z,16.40
2023-04-18T12:39:04.047Z,16.40
2023-04-18T12:41:36.838Z,16.50
2023-04-18T12:44:10.159Z,16.50
2023-04-18T12:46:42.881Z,16.40
2023-04-18T12:49:15.074Z,16.50
2023-04-18T12:51:47.377Z,16.60
2023-04-18T12:54:21.493Z,16.60
2023-04-18T12:56:54.117Z,16.60
2023-04-18T12:59:25.738Z,16.60
2023-04-18T13:01:57.962Z,16.60
2023-04-18T13:04:30.962Z,16.60
2023-04-18T13:07:17.804Z,16.60
2023-04-18T13:09:52.136Z,16.70
2023-04-18T13:12:23.383Z,16.70
2023-04-18T13:14:55.010Z,16.70
2023-04-18T13:17:26.483Z,16.70
2023-04-18T13:19:59.577Z,16.70
2023-04-18T13:22:32.193Z,16.70
2023-04-18T13:25:07.570Z,16.70
2023-04-18T13:27:41.398Z,16.60
2023-04-18T13:30:14.896Z,16.60
2023-04-18T13:32:47.802Z,16.60
2023-04-18T13:35:20.322Z,16.70
2023-04-18T13:37:52.684Z,16.70
2023-04-18T13:40:28.318Z,16.70
2023-04-18T13:43:00.221Z,16.70
2023-04-18T13:45:32.234Z,16.70
2023-04-18T13:48:04.171Z,16.70
2023-04-18T13:50:36.023Z,16.70
2023-04-18T13:53:07.926Z,16.60
2023-04-18T13:55:43.364Z,16.60
2023-04-18T13:58:16.451Z,16.60
2023-04-18T14:00:53.633Z,16.50
2023-04-18T14:03:29.399Z,16.50
2023-04-18T14:06:04.929Z,16.60
2023-04-18T14:08:40.750Z,16.60
2023-04-18T14:11:19.267Z,16.70
2023-04-18T14:13:53.023Z,16.70
2023-04-18T14:19:18.549Z,16.70
2023-04-18T14:21:51.513Z,16.60
2023-04-18T14:24:23.733Z,16.60
2023-04-18T14:26:59.186Z,16.60
2023-04-18T14:29:31.622Z,16.60
2023-04-18T14:32:04.649Z,16.60
2023-04-18T14:34:38.723Z,16.50
2023-04-18T14:37:12.333Z,16.50
2023-04-18T14:39:55.789Z,16.40
2023-04-18T14:42:33.159Z,16.40
2023-04-18T14:45:05.671Z,16.40
2023-04-18T14:47:40.326Z,16.30
2023-04-18T14:50:13.575Z,16.30
2023-04-18T14:52:46.424Z,16.30
2023-04-18T14:55:20.170Z,16.20
2023-04-18T14:57:55.494Z,16.30
2023-04-18T15:00:27.465Z,16.30
2023-04-18T15:03:00.411Z,16.30
2023-04-18T15:05:36.148Z,16.20
2023-04-18T15:08:13.232Z,16.30
2023-04-18T15:10:48.034Z,16.30
2023-04-18T15:13:24.323Z,16.20
2023-04-18T15:15:59.452Z,16.20
2023-04-18T15:18:36.810Z,16.20
2023-04-18T15:21:13.715Z,16.10
2023-04-18T15:23:46.638Z,16.10
2023-04-18T15:26:20.780Z,16.00
2023-04-18T15:28:57.131Z,16.00
2023-04-18T15:31:29.661Z,16.00
2023-04-18T15:34:03.460Z,16.00
2023-04-18T15:36:36.553Z,15.90
2023-04-18T15:39:10.064Z,15.90
2023-04-18T15:41:44.054Z,15.90
2023-04-18T15:44:21.499Z,15.90
2023-04-18T15:46:55.314Z,15.90
2023-04-18T15:49:27.514Z,15.90
2023-04-18T15:52:00.038Z,15.80
2023-04-18T15:54:32.417Z,15.80
2023-04-18T15:57:03.990Z,15.80
2023-04-18T15:59:39.143Z,15.80
2023-04-18T16:02:13.155Z,15.70
2023-04-18T16:04:45.144Z,15.70
2023-04-18T16:07:17.443Z,15.70
2023-04-18T16:09:52.943Z,15.70
2023-04-18T16:12:24.978Z,15.70
2023-04-18T16:15:00.687Z,15.60
2023-04-18T16:17:32.827Z,15.60
2023-04-18T16:20:06.660Z,15.50
2023-04-18T16:22:38.524Z,15.50
2023-04-18T16:25:12.582Z,15.40
2023-04-18T16:27:49.081Z,15.40
2023-04-18T16:30:26.515Z,15.40
2023-04-18T16:32:59.516Z,15.30
2023-04-18T16:35:32.355Z,15.30
2023-04-18T16:38:04.727Z,15.20
2023-04-18T16:40:39.307Z,15.20
2023-04-18T16:43:11.378Z,15.10
2023-04-18T16:45:50.065Z,15.10
2023-04-18T16:48:25.029Z,15.10
2023-04-18T16:50:57.238Z,15.00
2023-04-18T16:53:29.932Z,14.90
2023-04-18T16:56:03.830Z,14.90
2023-04-18T16:58:38.612Z,14.90
2023-04-18T17:01:16.885Z,14.80
2023-04-18T17:03:49.634Z,14.80
2023-04-18T17:06:25.147Z,14.70
2023-04-18T17:08:58.749Z,14.70
2023-04-18T17:11:39.665Z,14.70
2023-04-18T17:14:12.256Z,14.60
2023-04-18T17:16:47.513Z,14.60
2023-04-18T17:19:19.939Z,14.60
2023-04-18T17:21:52.519Z,14.50
2023-04-18T17:24:24.374Z,14.50
2023-04-18T17:26:58.277Z,14.40
2023-04-18T17:29:35.784Z,14.30
2023-04-18T17:32:12.384Z,14.30
2023-04-18T17:34:44.411Z,14.20
2023-04-18T17:37:17.995Z,14.10
2023-04-18T17:39:52.765Z,14.00
2023-04-18T17:42:26.119Z,14.00
2023-04-18T17:44:58.692Z,13.90
2023-04-18T17:47:34.309Z,13.80
2023-04-18T17:50:06.497Z,13.80
2023-04-18T17:52:38.244Z,13.70
2023-04-18T17:55:09.893Z,13.70
2023-04-18T17:57:41.350Z,13.70
2023-04-18T18:00:14.318Z,13.60
2023-04-18T18:02:48.532Z,13.50
2023-04-18T18:05:19.797Z,13.40
2023-04-18T18:07:53.624Z,13.40
2023-04-18T18:10:26.338Z,13.30
2023-04-18T18:12:58.103Z,13.30
2023-04-18T18:15:29.377Z,13.30
2023-04-18T18:18:03.570Z,13.20
2023-04-18T18:20:35.225Z,13.20
2023-04-18T18:23:07.930Z,13.10
2023-04-18T18:25:42.160Z,13.10
2023-04-18T18:28:13.635Z,13.00
2023-04-18T18:30:45.235Z,13.00
2023-04-18T18:33:19.605Z,13.00
2023-04-18T18:35:51.090Z,12.90
2023-04-18T18:38:25.240Z,12.90
2023-04-18T18:40:56.612Z,12.90
2023-04-18T18:43:29.216Z,12.80
2023-04-18T18:46:00.656Z,12.80
2023-04-18T18:48:38.582Z,12.70
2023-04-18T18:51:11.556Z,12.60
2023-04-18T18:53:45.286Z,12.60
2023-04-18T18:56:17.086Z,12.50
2023-04-18T18:58:48.596Z,12.50
2023-04-18T19:01:20.984Z,12.40
2023-04-18T19:04:04.732Z,12.40
2023-04-18T19:06:42.445Z,12.40
2023-04-18T19:09:18.877Z,12.30
2023-04-18T19:11:55.758Z,12.30
2023-04-18T19:14:31.407Z,12.20
2023-04-18T19:17:06.670Z,12.20
2023-04-18T19:19:43.906Z,12.10
2023-04-18T19:22:17.270Z,12.10
2023-04-18T19:24:49.920Z,12.10
2023-04-18T19:27:23.453Z,12.00
2023-04-18T19:29:56.474Z,12.00
2023-04-18T19:32:28.356Z,12.00
2023-04-18T19:35:03.488Z,12.00
2023-04-18T19:37:38.732Z,11.90
2023-04-18T19:40:12.038Z,11.90
2023-04-18T19:42:43.990Z,11.90
2023-04-18T19:45:16.385Z,11.90
2023-04-18T19:47:48.975Z,11.90
2023-04-18T19:50:27.126Z,11.80
2023-04-18T19:52:59.575Z,11.80
2023-04-18T19:55:35.325Z,11.80
2023-04-18T19:58:08.931Z,11.70
2023-04-18T20:00:44.030Z,11.70
2023-04-18T20:03:17.704Z,11.70
2023-04-18T20:05:58.723Z,11.70
2023-04-18T20:08:32.101Z,11.60
2023-04-18T20:11:06.255Z,11.60
2023-04-18T20:13:43.119Z,11.60
2023-04-18T20:16:17.516Z,11.50
2023-04-18T20:18:54.216Z,11.40
2023-04-18T20:21:30.136Z,11.40
2023-04-18T20:24:02.308Z,11.30
2023-04-18T20:26:35.556Z,11.30
2023-04-18T20:29:20.824Z,11.30
2023-04-18T20:31:54.711Z,11.20
2023-04-18T20:34:30.321Z,11.20
2023-04-18T20:37:08.040Z,11.20
2023-04-18T20:39:40.860Z,11.20
2023-04-18T20:42:15.119Z,11.10
2023-04-18T20:44:47.313Z,11.10
2023-04-18T20:47:19.914Z,11.10
2023-04-18T20:49:53.326Z,11.00
2023-04-18T20:52:29.132Z,11.00
2023-04-18T20:55:02.035Z,11.00
2023-04-18T20:57:35.396Z,11.00
2023-04-18T21:00:10.717Z,10.90
2023-04-18T21:02:45.294Z,10.90
2023-04-18T21:05:18.905Z,10.90
2023-04-18T21:07:54.425Z,10.80
2023-04-18T21:10:26.768Z,10.80
2023-04-18T21:12:58.944Z,10.70
2023-04-18T21:15:34.104Z,10.70
2023-04-18T21:18:06.775Z,10.70
2023-04-18T21:20:40.092Z,10.60
2023-04-18T21:23:19.126Z,10.60
2023-04-18T21:25:51.743Z,10.60
2023-04-18T21:28:25.004Z,10.50
2023-04-18T21:30:59.442Z,10.50
2023-04-18T21:33:32.646Z,10.40
2023-04-18T21:36:04.754Z,10.40
2023-04-18T21:38:41.081Z,10.30
2023-04-18T21:41:15.275Z,10.30
2023-04-18T21:43:48.076Z,10.20
2023-04-18T21:46:21.362Z,10.20
2023-04-18T21:48:57.343Z,10.10
2023-04-18T21:51:32.646Z,10.10
2023-04-18T21:54:08.186Z,10.00
2023-04-18T21:56:40.528Z,10.00
2023-04-18T21:59:13.007Z,9.90
2023-04-18T22:01:50.484Z,9.80
2023-04-18T22:04:26.818Z,9.80
2023-04-18T22:06:59.041Z,9.70
2023-04-18T22:09:34.925Z,9.70
2023-04-18T22:12:08.606Z,9.70
2023-04-18T22:14:43.130Z,9.70
2023-04-18T22:17:15.404Z,9.70
2023-04-18T22:19:50.188Z,9.60
2023-04-18T22:22:22.818Z,9.60
2023-04-18T22:24:58.772Z,9.60
2023-04-18T22:27:32.124Z,9.60
2023-04-18T22:30:05.512Z,9.60
2023-04-18T22:32:38.457Z,9.60
2023-04-18T22:35:13.956Z,9.60
2023-04-18T22:37:47.115Z,9.50
2023-04-18T22:40:24.609Z,9.60
2023-04-18T22:42:56.748Z,9.50
2023-04-18T22:45:29.896Z,9.50
2023-04-18T22:48:03.323Z,9.50
2023-04-18T22:50:38.840Z,9.50
2023-04-18T22:53:13.927Z,9.50
2023-04-18T22:55:49.018Z,9.50
2023-04-18T22:58:24.338Z,9.50
2023-04-18T23:00:59.527Z,9.50
2023-04-18T23:03:35.771Z,9.50
2023-04-18T23:06:13.298Z,9.50
2023-04-18T23:08:46.074Z,9.50
2023-04-18T23:11:21.867Z,9.50
2023-04-18T23:13:53.505Z,9.40
2023-04-18T23:16:25.494Z,9.40
2023-04-18T23:18:56.705Z,9.50
2023-04-18T23:21:28.733Z,9.50
2023-04-18T23:24:02.078Z,9.50
2023-04-18T23:26:36.810Z,9.50
2023-04-18T23:29:09.145Z,9.50
2023-04-18T23:31:41.755Z,9.50
2023-04-18T23:34:14.321Z,9.50
2023-04-18T23:36:48.047Z,9.40
2023-04-18T23:39:22.328Z,9.40
2023-04-18T23:41:57.094Z,9.40
2023-04-18T23:44:28.920Z,9.40
2023-04-18T23:47:02.244Z,9.30
2023-04-18T23:49:35.759Z,9.30
2023-04-18T23:52:08.539Z,9.30
2023-04-18T23:54:42.044Z,9.20
2023-04-18T23:57:17.578Z,9.20
2023-04-18T23:59:49.221Z,9.10
